Aviation Digital Data Service (ADDS)

Output produced by METARs form (1504 UTC 19 January 2017)
found at http://aviationweather.gov/adds/metars/
 
KBTV 191132Z 1912/2012 VRB04KT P6SM OVC025 
     FM191700 30007KT P6SM OVC025 
     FM192000 34006KT P6SM OVC025 
     FM200100 00000KT P6SM OVC020